Time;durP1;ratioP1;P1;durP2;ratioP2;P2;SDS_P1;SDS_P2;PMS_P1;PMS_P2;Temp;Humidity;BMP_temperature;BMP_pressure;BME280_temperature;BME280_humidity;BME280_pressure;Samples;Min_cycle;Max_cycle;Signal;HPM_P1;HPM_P2
2023/08/29 00:01:26;;;;;;;17.77;14.40;;;665.90;2432.00;;;;;;4919554;29;20138;-82
2023/08/29 00:03:55;;;;;;;18.67;14.70;;;665.90;2432.00;;;;;;4920461;29;20027;-83
2023/08/29 00:06:20;;;;;;;18.77;15.25;;;665.80;2432.00;;;;;;4919656;29;20035;-82
2023/08/29 00:08:46;;;;;;;21.40;15.65;;;640.80;2432.00;;;;;;4916563;29;20052;-84
2023/08/29 00:11:12;;;;;;;20.27;14.18;;;640.60;2432.00;;;;;;4917643;29;20028;-83
2023/08/29 00:13:38;;;;;;;17.35;13.95;;;640.50;2432.00;;;;;;4916483;29;20028;-83
2023/08/29 00:16:05;;;;;;;17.60;14.93;;;640.70;2432.00;;;;;;4916977;29;20119;-82
2023/08/29 00:18:31;;;;;;;15.93;14.20;;;640.50;2432.00;;;;;;4917795;29;20020;-82
2023/08/29 00:20:56;;;;;;;15.93;14.32;;;640.60;2432.00;;;;;;4916800;29;20038;-83
2023/08/29 00:23:22;;;;;;;15.80;14.15;;;640.70;2432.00;;;;;;4916510;29;20358;-84
2023/08/29 00:25:50;;;;;;;21.08;14.43;;;640.70;2432.00;;;;;;4916488;29;20055;-84
2023/08/29 00:28:16;;;;;;;16.25;14.55;;;640.40;2432.00;;;;;;4915968;29;20119;-81
2023/08/29 00:30:42;;;;;;;21.88;15.35;;;640.50;2432.00;;;;;;4916467;29;20070;-81
2023/08/29 00:33:09;;;;;;;20.10;14.70;;;640.50;2432.00;;;;;;4919730;29;20059;-80
2023/08/29 00:35:35;;;;;;;19.25;15.45;;;640.60;2432.00;;;;;;4917013;29;20024;-83
2023/08/29 00:38:01;;;;;;;16.92;14.50;;;640.50;2432.00;;;;;;4917509;29;20063;-82
2023/08/29 00:40:31;;;;;;;24.98;15.70;;;640.60;2432.00;;;;;;4917307;29;20067;-80
2023/08/29 00:43:00;;;;;;;18.38;15.68;;;640.30;2432.00;;;;;;4916048;29;20028;-81
2023/08/29 00:45:29;;;;;;;16.00;14.30;;;640.40;2432.00;;;;;;4918475;29;20031;-80
2023/08/29 00:47:56;;;;;;;17.73;14.73;;;640.50;2432.00;;;;;;4915964;29;20043;-81
2023/08/29 00:50:22;;;;;;;15.73;14.13;;;640.60;2432.00;;;;;;4916131;29;20025;-82
2023/08/29 00:52:50;;;;;;;17.00;14.32;;;640.60;2432.00;;;;;;4916580;29;20241;-82
2023/08/29 00:55:16;;;;;;;18.23;15.30;;;640.50;2432.00;;;;;;4916004;29;20039;-81
2023/08/29 00:57:42;;;;;;;18.10;13.75;;;640.20;2432.00;;;;;;4916728;29;20036;-83
2023/08/29 01:00:11;;;;;;;15.68;14.07;;;640.20;2432.00;;;;;;4917076;29;20040;-82
2023/08/29 01:02:36;;;;;;;20.45;14.82;;;640.10;2432.00;;;;;;4917206;29;20445;-81
2023/08/29 01:05:03;;;;;;;16.00;14.20;;;640.10;2432.00;;;;;;4916381;29;20036;-82
2023/08/29 01:07:30;;;;;;;18.63;14.98;;;;;;;;;;4916191;29;20527;-82
2023/08/29 01:09:56;;;;;;;18.67;14.13;;;;;;;;;;4917347;29;20389;-82
2023/08/29 01:12:27;;;;;;;26.42;16.00;;;;;;;;;;4919474;29;20456;-82
2023/08/29 01:15:03;;;;;;;26.88;15.50;;;;;;;;;;4919607;29;20515;-83
2023/08/29 01:17:34;;;;;;;34.05;13.90;;;615.30;2432.00;;;;;;4919370;29;20072;-79
2023/08/29 01:20:01;;;;;;;25.67;15.30;;;615.10;2432.00;;;;;;4919287;29;20036;-80
2023/08/29 01:22:49;;;;;;;18.55;14.68;;;615.00;2432.00;;;;;;4919258;29;20361;-83
2023/08/29 01:25:30;;;;;;;18.38;14.30;;;615.20;2432.00;;;;;;4919019;29;20047;-81
2023/08/29 01:27:56;;;;;;;21.15;13.95;;;615.30;2432.00;;;;;;4919866;29;20063;-83
2023/08/29 01:30:23;;;;;;;18.15;13.35;;;615.30;2432.00;;;;;;4919108;29;20028;-82
2023/08/29 01:32:50;;;;;;;13.98;11.63;;;615.30;2432.00;;;;;;4919153;29;20067;-82
2023/08/29 01:35:15;;;;;;;12.90;9.00;;;640.00;2432.00;;;;;;4921432;29;20056;-82
2023/08/29 01:37:42;;;;;;;12.95;8.60;;;640.10;2432.00;;;;;;4924066;29;20056;-82
2023/08/29 01:40:08;;;;;;;12.07;9.55;;;640.20;2432.00;;;;;;4923552;29;20067;-83
2023/08/29 01:42:36;;;;;;;18.30;9.30;;;640.00;2432.00;;;;;;4919157;29;20025;-84
2023/08/29 01:45:03;;;;;;;9.60;7.55;;;640.10;2432.00;;;;;;4918788;29;20024;-82
2023/08/29 01:47:29;;;;;;;8.23;5.68;;;640.10;2432.00;;;;;;4918644;29;20032;-83
2023/08/29 01:49:55;;;;;;;13.35;7.03;;;640.10;2432.00;;;;;;4919276;29;20103;-81
2023/08/29 01:52:21;;;;;;;7.97;5.90;;;640.10;2432.00;;;;;;4918476;29;20425;-84
2023/08/29 01:54:47;;;;;;;6.78;5.05;;;640.10;2432.00;;;;;;4920358;29;20032;-83
2023/08/29 01:57:15;;;;;;;5.82;3.85;;;640.00;2432.00;;;;;;4919352;29;20040;-83
2023/08/29 01:59:42;;;;;;;6.30;3.30;;;640.20;2432.00;;;;;;4919061;29;20036;-81
2023/08/29 02:02:07;;;;;;;4.65;3.08;;;640.10;2432.00;;;;;;4919209;29;20043;-82
2023/08/29 02:04:33;;;;;;;6.25;3.42;;;640.10;2432.00;;;;;;4918530;29;20028;-83
2023/08/29 02:06:59;;;;;;;3.63;2.38;;;640.00;2432.00;;;;;;4918504;29;20028;-83
2023/08/29 02:09:25;;;;;;;5.05;2.30;;;615.30;2432.00;;;;;;4918017;29;20055;-82
2023/08/29 02:11:51;;;;;;;3.90;1.90;;;615.30;2432.00;;;;;;4919262;29;20028;-83
2023/08/29 02:14:18;;;;;;;2.85;1.50;;;615.30;2432.00;;;;;;4917965;29;20056;-83
2023/08/29 02:16:44;;;;;;;2.42;1.38;;;640.00;2432.00;;;;;;4919288;29;20092;-82
2023/08/29 02:19:10;;;;;;;2.80;1.50;;;615.30;2432.00;;;;;;4919013;29;20064;-83
2023/08/29 02:21:35;;;;;;;1.55;1.00;;;640.10;2432.00;;;;;;4917371;29;20024;-81
2023/08/29 02:24:02;;;;;;;1.88;1.25;;;615.20;2432.00;;;;;;4918533;29;20469;-81
2023/08/29 02:26:28;;;;;;;1.52;0.88;;;615.20;2432.00;;;;;;4918017;29;20092;-85
2023/08/29 02:28:54;;;;;;;0.47;0.45;;;615.20;2432.00;;;;;;4918286;29;20036;-84
2023/08/29 02:31:22;;;;;;;0.40;0.40;;;615.20;2432.00;;;;;;4918049;29;20028;-82
2023/08/29 02:33:48;;;;;;;1.30;0.82;;;640.00;2432.00;;;;;;4918217;29;20066;-83
2023/08/29 02:36:14;;;;;;;0.60;0.60;;;640.00;2432.00;;;;;;4918090;29;20055;-82
2023/08/29 02:38:40;;;;;;;0.85;0.50;;;640.00;2432.00;;;;;;4917909;29;20040;-83
2023/08/29 02:41:06;;;;;;;0.55;0.40;;;640.10;2432.00;;;;;;4917860;29;20029;-82
2023/08/29 02:43:32;;;;;;;0.30;0.30;;;640.20;2432.00;;;;;;4917997;29;20025;-83
2023/08/29 02:45:58;;;;;;;0.52;0.38;;;640.20;2432.00;;;;;;4919264;29;20039;-82
2023/08/29 02:48:24;;;;;;;0.52;0.40;;;640.20;2432.00;;;;;;4917474;29;20499;-81
2023/08/29 02:50:50;;;;;;;0.45;0.40;;;640.20;2432.00;;;;;;4918927;29;20032;-82
2023/08/29 02:53:20;;;;;;;0.95;0.43;;;640.00;2432.00;;;;;;4919510;29;20417;-83
2023/08/29 02:55:49;;;;;;;0.50;0.50;;;615.10;2432.00;;;;;;4917335;29;20032;-81
2023/08/29 02:58:15;;;;;;;0.30;0.30;;;615.20;2432.00;;;;;;4917371;29;20032;-84
2023/08/29 03:00:41;;;;;;;0.57;0.40;;;615.10;2432.00;;;;;;4917866;29;20115;-82
2023/08/29 03:03:07;;;;;;;1.67;0.65;;;615.10;2432.00;;;;;;4917305;29;20076;-83
2023/08/29 03:05:33;;;;;;;0.45;0.45;;;615.10;2432.00;;;;;;4918883;29;20036;-82
2023/08/29 03:07:59;;;;;;;0.55;0.45;;;615.00;2432.00;;;;;;4917634;29;20047;-84
2023/08/29 03:10:25;;;;;;;0.32;0.32;;;614.90;2432.00;;;;;;4901368;29;20139;-83
2023/08/29 03:12:51;;;;;;;0.30;0.30;;;614.70;2432.00;;;;;;4901826;29;20158;-83
2023/08/29 03:15:20;;;;;;;0.55;0.55;;;614.50;2432.00;;;;;;4902888;29;20031;-83
2023/08/29 03:17:46;;;;;;;0.50;0.50;;;614.40;2432.00;;;;;;4903184;29;20036;-82
2023/08/29 03:20:12;;;;;;;0.40;0.40;;;614.50;2432.00;;;;;;4901734;29;20028;-84
2023/08/29 03:22:38;;;;;;;0.30;0.30;;;614.60;2432.00;;;;;;4901012;29;20028;-82
2023/08/29 03:25:05;;;;;;;0.32;0.32;;;614.70;2432.00;;;;;;4901346;29;20039;-84
2023/08/29 03:27:31;;;;;;;0.43;0.38;;;614.80;2432.00;;;;;;4918644;29;20114;-81
2023/08/29 03:29:58;;;;;;;0.50;0.50;;;614.60;2432.00;;;;;;4918522;29;20064;-82
2023/08/29 03:32:23;;;;;;;0.80;0.50;;;589.50;2432.00;;;;;;4901588;29;20039;-82
2023/08/29 03:34:54;;;;;;;0.50;0.50;;;589.20;2432.00;;;;;;4901782;29;20036;-83
2023/08/29 03:37:20;;;;;;;0.40;0.40;;;589.10;2432.00;;;;;;4901218;29;20034;-81
2023/08/29 03:39:46;;;;;;;0.20;0.20;;;589.10;2432.00;;;;;;4901967;29;20115;-84
2023/08/29 03:42:12;;;;;;;0.70;0.55;;;589.30;2432.00;;;;;;4902031;29;20024;-83
2023/08/29 03:44:37;;;;;;;0.68;0.52;;;589.10;2432.00;;;;;;4901278;29;20031;-82
2023/08/29 03:47:04;;;;;;;1.20;0.40;;;589.30;2432.00;;;;;;4902346;29;20032;-81
2023/08/29 03:49:30;;;;;;;0.30;0.30;;;589.50;2432.00;;;;;;4902357;29;20036;-79
2023/08/29 03:51:56;;;;;;;0.43;0.43;;;589.70;2432.00;;;;;;4908537;29;20038;-80
2023/08/29 03:54:22;;;;;;;0.28;0.28;;;614.50;2432.00;;;;;;4907461;29;20028;-82
2023/08/29 03:56:48;;;;;;;0.30;0.30;;;589.70;2432.00;;;;;;4902774;29;20115;-81
2023/08/29 03:59:15;;;;;;;0.40;0.40;;;589.60;2432.00;;;;;;4901792;29;20369;-84
2023/08/29 04:01:41;;;;;;;0.25;0.25;;;589.70;2432.00;;;;;;4903543;29;20381;-83
2023/08/29 04:04:06;;;;;;;0.30;0.30;;;614.40;2432.00;;;;;;4904234;29;20032;-82
2023/08/29 04:06:35;;;;;;;0.50;0.47;;;614.70;2432.00;;;;;;4903429;29;20028;-83
2023/08/29 04:09:02;;;;;;;0.22;0.22;;;614.60;2432.00;;;;;;4903661;29;20052;-83
2023/08/29 04:11:28;;;;;;;0.20;0.20;;;614.70;2432.00;;;;;;4903820;29;20384;-80
2023/08/29 04:13:53;;;;;;;1.95;0.45;;;615.00;2432.00;;;;;;4906572;29;20024;-81
2023/08/29 04:16:19;;;;;;;0.20;0.20;;;615.20;2432.00;;;;;;4904980;29;20036;-84
2023/08/29 04:18:45;;;;;;;0.20;0.20;;;615.10;2432.00;;;;;;4921896;29;20036;-82
2023/08/29 04:21:11;;;;;;;0.25;0.25;;;615.10;2432.00;;;;;;4905572;29;20032;-82
2023/08/29 04:23:37;;;;;;;0.28;0.28;;;615.10;2432.00;;;;;;4919591;29;20114;-83
2023/08/29 04:26:03;;;;;;;0.30;0.30;;;614.80;2432.00;;;;;;4901550;29;20079;-84
2023/08/29 04:28:30;;;;;;;0.20;0.20;;;614.90;2432.00;;;;;;4917964;29;20477;-85
2023/08/29 04:31:05;;;;;;;0.30;0.30;;;614.90;2432.00;;;;;;4918522;29;20187;-82
2023/08/29 04:33:31;;;;;;;0.20;0.20;;;614.90;2432.00;;;;;;4900498;29;20123;-84
2023/08/29 04:35:57;;;;;;;0.30;0.30;;;614.90;2432.00;;;;;;4900948;29;20115;-82
2023/08/29 04:38:23;;;;;;;0.20;0.20;;;614.90;2432.00;;;;;;4901340;29;20043;-83
2023/08/29 04:40:49;;;;;;;0.32;0.32;;;615.00;2432.00;;;;;;4900674;29;20036;-81
2023/08/29 04:43:14;;;;;;;0.22;0.22;;;614.80;2432.00;;;;;;4917981;29;20032;-82
2023/08/29 04:45:42;;;;;;;0.20;0.20;;;614.90;2432.00;;;;;;4903759;29;20079;-82
2023/08/29 04:48:08;;;;;;;0.35;0.35;;;615.00;2432.00;;;;;;4904027;29;20032;-81
2023/08/29 04:50:34;;;;;;;0.22;0.22;;;614.90;2432.00;;;;;;4904327;29;20532;-82
2023/08/29 04:53:00;;;;;;;0.30;0.30;;;614.80;2432.00;;;;;;4921085;29;20092;-81
2023/08/29 04:55:26;;;;;;;0.28;0.28;;;614.80;2432.00;;;;;;4903659;29;20119;-82
2023/08/29 04:57:54;;;;;;;0.20;0.20;;;614.80;2432.00;;;;;;4904068;29;20036;-83
2023/08/29 05:00:20;;;;;;;0.52;0.47;;;614.80;2432.00;;;;;;4904275;29;20135;-81
2023/08/29 05:02:46;;;;;;;0.22;0.22;;;614.90;2432.00;;;;;;4921043;29;20476;-81
2023/08/29 05:05:11;;;;;;;0.20;0.20;;;615.00;2432.00;;;;;;4904181;29;20084;-82
2023/08/29 05:07:37;;;;;;;0.75;0.52;;;615.10;2432.00;;;;;;4903361;29;20123;-82
2023/08/29 05:10:04;;;;;;;0.28;0.28;;;615.10;2432.00;;;;;;4904503;29;20056;-81
2023/08/29 05:12:29;;;;;;;0.20;0.20;;;615.10;2432.00;;;;;;4903651;29;20100;-82
2023/08/29 05:14:55;;;;;;;0.28;0.28;;;615.00;2432.00;;;;;;4903757;29;20032;-83
2023/08/29 05:17:21;;;;;;;0.20;0.20;;;615.00;2432.00;;;;;;4903222;29;20035;-82
2023/08/29 05:19:47;;;;;;;0.20;0.20;;;615.20;2432.00;;;;;;4903566;29;20111;-82
2023/08/29 05:22:13;;;;;;;0.20;0.20;;;615.30;2432.00;;;;;;4903424;29;20032;-82
2023/08/29 05:24:39;;;;;;;0.20;0.20;;;640.00;2432.00;;;;;;4903663;29;20038;-83
2023/08/29 05:27:04;;;;;;;0.30;0.30;;;640.10;2432.00;;;;;;4903512;29;20028;-83
2023/08/29 05:29:30;;;;;;;0.40;0.30;;;640.00;2432.00;;;;;;4902958;29;20052;-82
2023/08/29 05:31:56;;;;;;;0.25;0.25;;;615.30;2432.00;;;;;;4903226;29;20032;-82
2023/08/29 05:34:22;;;;;;;0.22;0.22;;;640.00;2432.00;;;;;;4903257;29;20035;-81
2023/08/29 05:36:50;;;;;;;0.25;0.25;;;640.00;2432.00;;;;;;4903182;29;20103;-81
2023/08/29 05:39:16;;;;;;;0.20;0.20;;;640.00;2432.00;;;;;;4903873;29;20096;-82
2023/08/29 05:41:41;;;;;;;0.22;0.22;;;640.00;2432.00;;;;;;4903064;29;20028;-82
2023/08/29 05:44:07;;;;;;;0.45;0.45;;;640.20;2432.00;;;;;;4903139;29;20028;-81
2023/08/29 05:46:33;;;;;;;0.20;0.20;;;640.20;2432.00;;;;;;4903382;29;20025;-83
2023/08/29 05:48:59;;;;;;;0.30;0.30;;;640.40;2432.00;;;;;;4903271;29;20436;-83
2023/08/29 05:51:28;;;;;;;0.30;0.30;;;640.40;2432.00;;;;;;4920298;29;20085;-84
2023/08/29 05:53:53;;;;;;;0.38;0.30;;;640.40;2432.00;;;;;;4902670;29;20028;-82
2023/08/29 05:56:20;;;;;;;0.20;0.20;;;640.60;2432.00;;;;;;4902052;29;20083;-82
2023/08/29 05:58:46;;;;;;;0.82;0.22;;;640.70;2432.00;;;;;;4902823;29;20036;-82
2023/08/29 06:01:12;;;;;;;0.30;0.30;;;640.60;2432.00;;;;;;4903486;29;20546;-81
2023/08/29 06:03:37;;;;;;;0.20;0.20;;;640.60;2432.00;;;;;;4902514;29;20033;-82
2023/08/29 06:06:04;;;;;;;0.20;0.20;;;640.60;2432.00;;;;;;4902459;29;20366;-83
2023/08/29 06:08:36;;;;;;;0.45;0.38;;;640.60;2432.00;;;;;;4902595;29;20131;-81
2023/08/29 06:11:03;;;;;;;0.45;0.45;;;640.60;2432.00;;;;;;4919684;29;20404;-84
2023/08/29 06:13:29;;;;;;;0.32;0.32;;;640.70;2432.00;;;;;;4918330;29;20035;-83
2023/08/29 06:15:55;;;;;;;0.30;0.30;;;640.70;2432.00;;;;;;4918497;29;20024;-83
2023/08/29 06:18:21;;;;;;;0.38;0.38;;;640.70;2432.00;;;;;;4919440;29;20040;-83
2023/08/29 06:20:47;;;;;;;0.30;0.30;;;640.60;2432.00;;;;;;4918334;29;20084;-84
2023/08/29 06:23:13;;;;;;;0.63;0.63;;;640.50;2432.00;;;;;;4918250;29;20032;-82
2023/08/29 06:25:39;;;;;;;0.30;0.30;;;640.50;2432.00;;;;;;4917752;29;20032;-84
2023/08/29 06:28:05;;;;;;;0.25;0.25;;;640.50;2432.00;;;;;;4918437;29;20036;-82
2023/08/29 06:30:31;;;;;;;0.60;0.60;;;640.50;2432.00;;;;;;4918227;29;20060;-81
2023/08/29 06:32:57;;;;;;;0.20;0.20;;;640.50;2432.00;;;;;;4918085;29;20028;-82
2023/08/29 06:35:23;;;;;;;0.20;0.20;;;640.50;2432.00;;;;;;4918143;29;20500;-81
2023/08/29 06:37:49;;;;;;;0.35;0.35;;;640.40;2432.00;;;;;;4919801;29;20499;-81
2023/08/29 06:40:15;;;;;;;0.30;0.30;;;640.30;2432.00;;;;;;4918354;29;20025;-82
2023/08/29 06:42:41;;;;;;;0.30;0.30;;;640.20;2432.00;;;;;;4919237;29;20036;-84
2023/08/29 06:45:08;;;;;;;0.20;0.20;;;640.40;2432.00;;;;;;4917444;29;20192;-82
2023/08/29 06:47:34;;;;;;;0.30;0.30;;;640.30;2432.00;;;;;;4919766;29;20052;-83
2023/08/29 06:50:00;;;;;;;0.20;0.20;;;640.30;2432.00;;;;;;4922173;29;20043;-86
2023/08/29 06:52:29;;;;;;;0.30;0.30;;;640.40;2432.00;;;;;;4919989;29;20560;-83
2023/08/29 06:54:54;;;;;;;0.65;0.57;;;640.20;2432.00;;;;;;4919355;29;20115;-83
2023/08/29 06:57:20;;;;;;;0.30;0.30;;;640.30;2432.00;;;;;;4920156;29;20123;-83
2023/08/29 06:59:46;;;;;;;0.25;0.25;;;640.40;2432.00;;;;;;4923701;29;20044;-85
2023/08/29 07:02:12;;;;;;;0.22;0.22;;;640.40;2432.00;;;;;;4922488;29;20028;-82
2023/08/29 07:04:38;;;;;;;0.43;0.32;;;640.50;2432.00;;;;;;4925921;29;20036;-83
2023/08/29 07:07:04;;;;;;;0.22;0.22;;;640.50;2432.00;;;;;;4920458;29;20028;-85
2023/08/29 07:09:30;;;;;;;0.30;0.30;;;640.60;2432.00;;;;;;4919859;29;20071;-84
2023/08/29 07:11:57;;;;;;;0.20;0.20;;;640.70;2432.00;;;;;;4920492;29;20032;-83
2023/08/29 07:14:23;;;;;;;0.20;0.20;;;640.50;2432.00;;;;;;4921711;29;20039;-83
2023/08/29 07:16:49;;;;;;;0.22;0.22;;;640.50;2432.00;;;;;;4920133;29;20042;-83
2023/08/29 07:19:15;;;;;;;0.25;0.25;;;640.40;2432.00;;;;;;4919982;29;20096;-81
2023/08/29 07:21:41;;;;;;;0.57;0.38;;;640.40;2432.00;;;;;;4918178;29;20024;-81
2023/08/29 07:24:07;;;;;;;0.10;0.10;;;640.50;2432.00;;;;;;4918793;29;20108;-84
2023/08/29 07:26:33;;;;;;;0.20;0.20;;;640.60;2432.00;;;;;;4918630;29;20478;-84
2023/08/29 07:28:59;;;;;;;0.40;0.40;;;640.70;2432.00;;;;;;4918327;29;20039;-83
2023/08/29 07:31:24;;;;;;;0.20;0.20;;;640.90;2432.00;;;;;;4918003;29;20032;-81
2023/08/29 07:33:51;;;;;;;0.32;0.32;;;640.90;2432.00;;;;;;4918506;29;20441;-82
2023/08/29 07:36:16;;;;;;;0.25;0.25;;;640.90;2432.00;;;;;;4918770;29;20134;-82
2023/08/29 07:38:42;;;;;;;1.83;0.65;;;640.90;2432.00;;;;;;4918460;29;20100;-82
2023/08/29 07:41:08;;;;;;;0.30;0.30;;;665.60;2432.00;;;;;;4917923;29;20032;-80
2023/08/29 07:43:34;;;;;;;0.20;0.20;;;665.60;2432.00;;;;;;4920401;29;20028;-85
2023/08/29 07:46:00;;;;;;;0.35;0.35;;;665.70;2432.00;;;;;;4918787;29;20488;-81
2023/08/29 07:48:26;;;;;;;0.25;0.25;;;665.80;2432.00;;;;;;4921700;29;20036;-81
2023/08/29 07:50:52;;;;;;;0.20;0.20;;;665.80;2432.00;;;;;;4920203;29;20384;-81
2023/08/29 07:53:18;;;;;;;0.20;0.20;;;665.90;2432.00;;;;;;4919637;29;20032;-80
2023/08/29 07:55:44;;;;;;;0.22;0.22;;;665.90;2432.00;;;;;;4920773;29;20020;-81
2023/08/29 07:58:10;;;;;;;0.30;0.30;;;666.00;2432.00;;;;;;4919116;29;20036;-81
2023/08/29 08:00:36;;;;;;;0.20;0.20;;;666.30;2432.00;;;;;;4921654;29;20028;-79
2023/08/29 08:03:03;;;;;;;0.20;0.20;;;666.30;2432.00;;;;;;4925066;29;20434;-80
2023/08/29 08:05:29;;;;;;;0.20;0.20;;;666.40;2432.00;;;;;;4921063;29;20033;-82
2023/08/29 08:07:56;;;;;;;0.40;0.40;;;666.50;2432.00;;;;;;4918790;29;20028;-82
2023/08/29 08:10:22;;;;;;;0.20;0.20;;;691.30;2432.00;;;;;;4918893;29;20056;-81
2023/08/29 08:12:49;;;;;;;0.30;0.30;;;691.40;2432.00;;;;;;4919181;29;20029;-82
2023/08/29 08:15:20;;;;;;;0.10;0.10;;;691.50;2432.00;;;;;;4917760;29;20103;-81
2023/08/29 08:17:46;;;;;;;0.20;0.20;;;716.80;2432.00;;;;;;4917808;29;20491;-79
2023/08/29 08:20:12;;;;;;;0.22;0.20;;;716.90;2432.00;;;;;;4920616;29;20413;-82
2023/08/29 08:22:39;;;;;;;0.30;0.30;;;692.10;2432.00;;;;;;4921386;29;20039;-81
2023/08/29 08:25:06;;;;;;;0.20;0.20;;;716.80;2432.00;;;;;;4920697;29;20028;-80
2023/08/29 08:27:31;;;;;;;0.30;0.30;;;716.80;2432.00;;;;;;4920815;29;20096;-79
2023/08/29 08:29:57;;;;;;;0.10;0.10;;;716.80;2432.00;;;;;;4920983;29;20035;-78
2023/08/29 08:32:24;;;;;;;0.10;0.10;;;716.90;2432.00;;;;;;4921130;29;20454;-79
2023/08/29 08:34:49;;;;;;;0.20;0.20;;;716.90;2432.00;;;;;;4922603;29;20092;-79
2023/08/29 08:37:15;;;;;;;0.20;0.20;;;716.80;2432.00;;;;;;4921283;29;20430;-79
2023/08/29 08:39:41;;;;;;;0.28;0.28;;;716.80;2432.00;;;;;;4921752;29;20127;-79
2023/08/29 08:42:10;;;;;;;0.20;0.20;;;716.90;2432.00;;;;;;4922918;29;20033;-81
2023/08/29 08:44:37;;;;;;;0.70;0.30;;;717.00;2432.00;;;;;;4921408;29;20055;-79
2023/08/29 08:47:04;;;;;;;0.10;0.10;;;717.10;2432.00;;;;;;4921259;29;20461;-81
2023/08/29 08:49:30;;;;;;;0.13;0.13;;;717.10;2432.00;;;;;;4922655;29;20032;-81
2023/08/29 08:51:58;;;;;;;0.20;0.20;;;716.90;2432.00;;;;;;4920710;29;20496;-80
2023/08/29 08:54:25;;;;;;;0.35;0.35;;;717.00;2432.00;;;;;;4920485;29;20028;-79
2023/08/29 08:56:51;;;;;;;0.20;0.20;;;717.10;2432.00;;;;;;4919958;29;20042;-80
2023/08/29 08:59:17;;;;;;;0.20;0.20;;;717.10;2432.00;;;;;;4919778;29;20188;-79
2023/08/29 09:01:44;;;;;;;0.20;0.20;;;717.40;2432.00;;;;;;4920354;29;20039;-81
2023/08/29 09:04:09;;;;;;;0.10;0.10;;;717.50;2432.00;;;;;;4922049;29;20123;-81
2023/08/29 09:06:38;;;;;;;0.10;0.10;;;717.40;2432.00;;;;;;4921694;29;20056;-81
2023/08/29 09:09:29;;;;;;;0.10;0.10;;;717.50;2432.00;;;;;;4915822;29;20061;-81
2023/08/29 09:11:57;;;;;;;0.40;0.38;;;717.50;2432.00;;;;;;4885460;29;20040;-81
2023/08/29 09:14:24;;;;;;;0.47;0.45;;;717.50;2432.00;;;;;;4889203;29;20025;-81
2023/08/29 09:16:57;;;;;;;0.10;0.10;;;717.50;2432.00;;;;;;4905563;29;20032;-81
2023/08/29 09:19:29;;;;;;;0.20;0.20;;;717.60;2432.00;;;;;;4924106;29;20040;-81
2023/08/29 09:21:55;;;;;;;0.20;0.20;;;742.40;2432.00;;;;;;4905892;29;20035;-80
2023/08/29 09:24:39;;;;;;;0.10;0.10;;;;;;;;;;4904821;29;20032;-81
2023/08/29 09:27:12;;;;;;;0.20;0.20;;;;;;;;;;4921359;29;20028;-81
2023/08/29 09:29:37;;;;;;;0.20;0.20;;;742.50;2432.00;;;;;;4889390;29;20102;-81
2023/08/29 09:32:14;;;;;;;0.20;0.20;;;742.40;2432.00;;;;;;4903473;29;20024;-81
2023/08/29 09:34:40;;;;;;;0.30;0.30;;;742.40;2432.00;;;;;;4903897;29;20556;-81
2023/08/29 09:37:06;;;;;;;0.35;0.25;;;742.40;2432.00;;;;;;4922013;29;20079;-79
2023/08/29 09:39:33;;;;;;;0.35;0.30;;;742.40;2432.00;;;;;;4904391;29;20107;-81
2023/08/29 09:42:09;;;;;;;0.32;0.30;;;717.70;2432.00;;;;;;4904159;29;20028;-79
2023/08/29 09:44:40;;;;;;;0.38;0.30;;;717.70;2432.00;;;;;;4903774;29;20176;-81
2023/08/29 09:47:08;;;;;;;0.10;0.10;;;742.40;2432.00;;;;;;4920248;29;20385;-79
2023/08/29 09:49:47;;;;;;;0.22;0.22;;;742.40;2432.00;;;;;;4904250;29;20036;-80
2023/08/29 09:52:14;;;;;;;0.20;0.20;;;742.40;2432.00;;;;;;4904283;29;20032;-81
2023/08/29 09:54:45;;;;;;;0.20;0.20;;;742.50;2432.00;;;;;;4903799;29;20048;-80
2023/08/29 09:57:13;;;;;;;0.13;0.13;;;;;;;;;;4904548;29;20042;-80
2023/08/29 09:59:40;;;;;;;2.40;0.80;;;;;;;;;;4904407;29;20040;-79
2023/08/29 10:02:07;;;;;;;0.22;0.22;;;;;;;;;;4903233;29;20028;-81
2023/08/29 10:04:36;;;;;;;0.10;0.10;;;768.00;2355.20;;;;;;4903248;29;20046;-81
2023/08/29 10:07:03;;;;;;;0.10;0.10;;;;;;;;;;4903239;29;20035;-81
2023/08/29 10:09:29;;;;;;;0.15;0.15;;;;;;;;;;4912730;29;20043;-82
2023/08/29 10:11:55;;;;;;;0.20;0.20;;;768.30;2304.00;;;;;;4922155;29;20020;-81
2023/08/29 10:14:22;;;;;;;0.20;0.20;;;768.60;2329.60;;;;;;4922125;29;20412;-82
2023/08/29 10:16:50;;;;;;;0.20;0.20;;;768.60;2278.40;;;;;;4921941;29;20054;-81
2023/08/29 10:19:16;;;;;;;0.20;0.20;;;768.90;2252.80;;;;;;4922557;29;20039;-82
2023/08/29 10:21:49;;;;;;;0.17;0.13;;;768.80;2227.20;;;;;;4921820;29;20028;-80
2023/08/29 10:24:16;;;;;;;0.30;0.30;;;768.70;2227.20;;;;;;4906521;29;20036;-82
2023/08/29 10:26:44;;;;;;;0.65;0.32;;;768.60;2227.20;;;;;;4902485;29;20392;-83
2023/08/29 10:29:10;;;;;;;0.20;0.20;;;768.80;2201.60;;;;;;4918787;29;20425;-80
2023/08/29 10:31:36;;;;;;;0.10;0.10;;;;;;;;;;4903384;29;20039;-81
2023/08/29 10:34:06;;;;;;;0.10;0.10;;;794.10;2176.00;;;;;;4903327;29;20472;-82
2023/08/29 10:36:37;;;;;;;0.20;0.20;;;794.00;2150.40;;;;;;4920452;29;20028;-83
2023/08/29 10:39:03;;;;;;;1.13;0.85;;;793.70;2150.40;;;;;;4903197;29;20493;-84
2023/08/29 10:41:44;;;;;;;0.28;0.28;;;793.60;2176.00;;;;;;4901820;29;20107;-83
2023/08/29 10:44:37;;;;;;;0.83;0.60;;;768.80;2150.40;;;;;;4901475;29;20020;-83
2023/08/29 10:47:20;;;;;;;0.95;0.60;;;793.70;2176.00;;;;;;4902185;29;20069;-82
2023/08/29 10:49:47;;;;;;;0.45;0.43;;;793.70;2124.80;;;;;;4903254;29;20036;-83
2023/08/29 10:52:18;;;;;;;0.65;0.40;;;;;;;;;;4902056;29;20047;-82
2023/08/29 10:54:44;;;;;;;0.43;0.38;;;;;;;;;;4905865;29;20087;-82
2023/08/29 10:57:30;;;;;;;0.28;0.20;;;;;;;;;;4905895;29;20456;-80
2023/08/29 10:59:56;;;;;;;0.30;0.30;;;;;;;;;;4904961;29;20033;-82
2023/08/29 11:02:29;;;;;;;0.10;0.10;;;;;;;;;;4902131;29;20031;-81
2023/08/29 11:05:01;;;;;;;0.13;0.13;;;;;;;;;;4903261;29;20028;-81
2023/08/29 11:07:27;;;;;;;0.63;0.50;;;845.20;1920.00;;;;;;4902166;29;20515;-81
2023/08/29 11:10:20;;;;;;;0.10;0.10;;;845.00;1945.60;;;;;;4901217;29;20048;-79
2023/08/29 11:13:24;;;;;;;0.30;0.30;;;;;;;;;;4902442;29;20092;-81
2023/08/29 11:15:52;;;;;;;2.42;0.75;;;;;;;;;;4825122;29;20041;-81
2023/08/29 11:18:19;;;;;;;0.30;0.20;;;;;;;;;;4808146;29;20079;-80
2023/08/29 11:20:46;;;;;;;0.50;0.32;;;;;;;;;;4809859;29;20083;-81
2023/08/29 11:23:12;;;;;;;0.32;0.20;;;;;;;;;;4808956;29;20072;-79
2023/08/29 11:25:38;;;;;;;0.20;0.20;;;;;;;;;;4807878;29;20058;-80
2023/08/29 11:28:06;;;;;;;0.10;0.10;;;;;;;;;;4823296;29;20079;-78
2023/08/29 11:30:33;;;;;;;0.10;0.10;;;;;;;;;;4808116;29;20050;-80
2023/08/29 11:32:59;;;;;;;0.10;0.10;;;;;;;;;;4807739;29;20034;-79
2023/08/29 11:35:28;;;;;;;0.20;0.20;;;;;;;;;;4808103;29;20034;-80
2023/08/29 11:37:54;;;;;;;0.30;0.25;;;;;;;;;;4809090;29;20047;-81
2023/08/29 11:40:20;;;;;;;0.15;0.15;;;;;;;;;;4807808;29;20034;-82
2023/08/29 11:42:47;;;;;;;1.40;0.80;;;;;;;;;;4823934;29;20042;-81
2023/08/29 11:45:15;;;;;;;0.17;0.17;;;;;;;;;;4808657;29;20037;-80
2023/08/29 11:47:41;;;;;;;0.10;0.10;;;;;;;;;;4807808;29;20562;-81
2023/08/29 11:50:07;;;;;;;0.28;0.25;;;;;;;;;;4869670;29;20452;-81
2023/08/29 11:52:34;;;;;;;2.13;0.25;;;;;;;;;;4901111;29;20016;-82
2023/08/29 11:55:04;;;;;;;0.20;0.20;;;;;;;;;;4917998;29;20465;-81
2023/08/29 11:57:31;;;;;;;0.10;0.10;;;;;;;;;;4902355;29;20028;-83
2023/08/29 11:59:57;;;;;;;0.20;0.20;;;;;;;;;;4901513;29;20813;-80
2023/08/29 12:02:24;;;;;;;0.95;0.38;;;;;;;;;;4901529;29;20028;-79
2023/08/29 12:04:57;;;;;;;0.10;0.10;;;871.30;1766.40;;;;;;4901972;29;20127;-80
2023/08/29 12:07:24;;;;;;;0.10;0.10;;;871.20;1740.80;;;;;;4901091;29;20032;-83
2023/08/29 12:09:52;;;;;;;0.10;0.10;;;871.10;1740.80;;;;;;4886105;29;20079;-79
2023/08/29 12:12:36;;;;;;;0.28;0.17;;;871.20;1766.40;;;;;;4903216;29;20028;-80
2023/08/29 12:15:06;;;;;;;0.30;0.30;;;871.30;1766.40;;;;;;4919719;29;20060;-79
2023/08/29 12:17:36;;;;;;;0.10;0.10;;;871.10;1715.20;;;;;;4901435;29;20033;-81
2023/08/29 12:20:03;;;;;;;0.13;0.13;;;870.90;1740.80;;;;;;4901116;29;20032;-80
2023/08/29 12:22:30;;;;;;;0.20;0.20;;;871.10;1740.80;;;;;;4901360;29;20059;-82
2023/08/29 12:24:56;;;;;;;0.28;0.20;;;870.80;1740.80;;;;;;4901993;29;20028;-80
2023/08/29 12:27:22;;;;;;;0.13;0.13;;;870.80;1740.80;;;;;;4901439;29;20028;-81
2023/08/29 12:29:48;;;;;;;0.05;0.05;;;870.60;1740.80;;;;;;4901740;29;20064;-81
2023/08/29 12:32:16;;;;;;;0.32;0.30;;;870.70;1740.80;;;;;;4918167;29;20062;-81